createdAt,value
2018-01-13T00:00:50.250Z,37.70
2018-01-13T00:01:52.781Z,37.55
2018-01-13T00:02:55.279Z,36.97
2018-01-13T00:03:57.794Z,38.30
2018-01-13T00:05:00.306Z,37.17
2018-01-13T00:06:02.814Z,38.80
2018-01-13T00:07:06.090Z,39.75
2018-01-13T00:08:08.595Z,41.30
2018-01-13T00:09:11.081Z,38.13
2018-01-13T00:10:13.602Z,37.95
2018-01-13T00:11:16.114Z,36.97
2018-01-13T00:12:18.622Z,36.30
2018-01-13T00:13:21.140Z,37.88
2018-01-13T00:14:24.399Z,37.25
2018-01-13T00:15:26.904Z,35.90
2018-01-13T00:16:29.423Z,37.45
2018-01-13T00:17:31.950Z,36.00
2018-01-13T00:18:34.507Z,37.20
2018-01-13T00:19:37.779Z,34.95
2018-01-13T00:20:40.304Z,36.38
2018-01-13T00:21:42.871Z,36.72
2018-01-13T00:22:45.396Z,37.47
2018-01-13T00:23:48.026Z,36.50
2018-01-13T00:24:50.528Z,33.75
2018-01-13T00:25:53.015Z,34.78
2018-01-13T00:26:55.557Z,35.30
2018-01-13T00:27:58.068Z,36.25
2018-01-13T00:29:01.388Z,33.97
2018-01-13T00:30:03.954Z,35.50
2018-01-13T00:31:06.479Z,34.67
2018-01-13T00:32:09.000Z,34.15
2018-01-13T00:33:11.533Z,34.63
2018-01-13T00:34:14.054Z,36.28
2018-01-13T00:35:16.557Z,34.72
2018-01-13T00:36:19.068Z,36.78
2018-01-13T00:37:22.333Z,35.15
2018-01-13T00:38:24.944Z,34.22
2018-01-13T00:39:27.514Z,37.33
2018-01-13T00:40:30.029Z,35.30
2018-01-13T00:41:32.521Z,34.65
2018-01-13T00:42:35.019Z,36.25
2018-01-13T00:43:38.296Z,36.05
2018-01-13T00:44:41.554Z,34.63
2018-01-13T00:45:44.088Z,36.80
2018-01-13T00:46:46.602Z,38.63
2018-01-13T00:47:49.270Z,36.90
2018-01-13T00:48:51.782Z,36.35
2018-01-13T00:49:54.290Z,37.90
2018-01-13T00:50:56.782Z,37.75
2018-01-13T00:51:59.273Z,37.60
2018-01-13T00:53:02.553Z,36.97
2018-01-13T00:54:05.868Z,37.90
2018-01-13T00:55:08.362Z,36.60
2018-01-13T00:56:10.910Z,34.22
2018-01-13T00:57:13.484Z,37.72
2018-01-13T00:58:16.054Z,35.15
2018-01-13T00:59:18.573Z,35.70
2018-01-13T01:00:21.079Z,37.63
2018-01-13T01:01:24.343Z,34.83
2018-01-13T01:02:27.630Z,36.72
2018-01-13T01:03:30.938Z,36.83
2018-01-13T01:04:34.307Z,35.88
2018-01-13T01:05:36.854Z,37.83
2018-01-13T01:06:39.337Z,33.80
2018-01-13T01:07:41.830Z,36.65
2018-01-13T01:08:44.434Z,37.83
2018-01-13T01:09:47.010Z,34.65
2018-01-13T01:10:49.519Z,35.22
2018-01-13T01:11:52.029Z,33.58
2018-01-13T01:12:55.454Z,34.25
2018-01-13T01:13:57.937Z,37.13
2018-01-13T01:15:00.580Z,38.28
2018-01-13T01:16:03.074Z,35.00
2018-01-13T01:17:05.580Z,36.80
2018-01-13T01:18:08.189Z,38.97
2018-01-13T01:19:10.701Z,37.15
2018-01-13T01:20:13.228Z,35.88
2018-01-13T01:21:15.714Z,36.60
2018-01-13T01:22:18.204Z,36.45
2018-01-13T01:23:20.688Z,34.25
2018-01-13T01:24:23.177Z,35.88
2018-01-13T01:25:25.685Z,35.20
2018-01-13T01:26:28.419Z,36.85
2018-01-13T01:27:30.933Z,36.33
2018-01-13T01:28:33.438Z,36.80
2018-01-13T01:29:35.931Z,33.83
2018-01-13T01:30:38.546Z,36.78
2018-01-13T01:31:41.258Z,35.72
2018-01-13T01:32:44.225Z,34.92
2018-01-13T01:33:46.710Z,35.05
2018-01-13T01:34:49.220Z,34.55
2018-01-13T01:35:52.628Z,34.35
2018-01-13T01:36:55.136Z,35.53
2018-01-13T01:37:57.628Z,35.13
2018-01-13T01:39:00.239Z,34.25
2018-01-13T01:40:02.761Z,37.70
2018-01-13T01:41:05.309Z,36.40
2018-01-13T01:42:07.819Z,35.90
2018-01-13T01:43:10.350Z,33.63
2018-01-13T01:44:12.858Z,32.40
2018-01-13T01:45:15.371Z,36.70
2018-01-13T01:46:18.041Z,33.92
2018-01-13T01:47:20.563Z,34.88
2018-01-13T01:48:27.072Z,35.45
2018-01-13T01:49:29.611Z,34.95
2018-01-13T01:50:32.108Z,37.42
2018-01-13T01:51:34.670Z,34.95
2018-01-13T01:52:37.939Z,36.03
2018-01-13T01:53:41.202Z,36.65
2018-01-13T01:54:43.719Z,36.60
2018-01-13T01:55:47.018Z,35.88
2018-01-13T01:56:49.576Z,35.95
2018-01-13T01:57:52.866Z,36.25
2018-01-13T01:58:56.127Z,36.00
2018-01-13T01:59:58.623Z,34.58
2018-01-13T02:01:01.871Z,35.80
2018-01-13T02:02:04.393Z,34.33
2018-01-13T02:03:06.882Z,34.50
2018-01-13T02:04:09.434Z,34.60
2018-01-13T02:05:11.925Z,34.80
2018-01-13T02:06:14.446Z,35.35
2018-01-13T02:07:16.978Z,36.45
2018-01-13T02:08:19.525Z,37.20
2018-01-13T02:09:22.012Z,36.35
2018-01-13T02:10:24.556Z,35.53
2018-01-13T02:11:27.129Z,35.58
2018-01-13T02:12:29.666Z,36.70
2018-01-13T02:13:32.166Z,37.13
2018-01-13T02:14:34.697Z,36.08
2018-01-13T02:15:37.224Z,33.80
2018-01-13T02:16:39.734Z,38.80
2018-01-13T02:17:42.221Z,37.20
2018-01-13T02:18:45.538Z,35.33
2018-01-13T02:19:48.116Z,39.50
2018-01-13T02:20:50.618Z,36.60
2018-01-13T02:21:53.103Z,38.38
2018-01-13T02:22:55.618Z,37.88
2018-01-13T02:23:58.499Z,37.58
2018-01-13T02:25:01.073Z,37.42
2018-01-13T02:26:03.566Z,37.83
2018-01-13T02:27:06.108Z,39.55
2018-01-13T02:28:08.594Z,37.53
2018-01-13T02:29:11.151Z,37.78
2018-01-13T02:30:14.415Z,37.72
2018-01-13T02:31:17.672Z,39.17
2018-01-13T02:32:20.212Z,38.08
2018-01-13T02:33:22.706Z,40.05
2018-01-13T02:34:25.189Z,38.08
2018-01-13T02:35:27.704Z,39.00
2018-01-13T02:36:30.994Z,36.10
2018-01-13T02:37:33.569Z,39.40
2018-01-13T02:38:36.085Z,37.10
2018-01-13T02:39:38.629Z,39.63
2018-01-13T02:40:41.122Z,40.92
2018-01-13T02:41:43.626Z,41.17
2018-01-13T02:42:46.151Z,40.60
2018-01-13T02:43:49.418Z,41.03
2018-01-13T02:44:51.951Z,39.63
2018-01-13T02:45:54.447Z,39.78
2018-01-13T02:46:56.934Z,41.03
2018-01-13T02:47:59.439Z,40.17
2018-01-13T02:49:02.722Z,41.58
2018-01-13T02:50:05.999Z,40.95
2018-01-13T02:51:08.526Z,41.60
2018-01-13T02:52:11.049Z,42.22
2018-01-13T02:53:13.658Z,42.22
2018-01-13T02:54:16.142Z,39.63
2018-01-13T02:55:18.692Z,43.70
2018-01-13T02:56:21.215Z,42.78
2018-01-13T02:57:23.724Z,44.80
2018-01-13T02:58:27.025Z,44.58
2018-01-13T02:59:30.306Z,41.70
2018-01-13T03:00:33.608Z,42.10
2018-01-13T03:01:36.175Z,42.47
2018-01-13T03:02:38.696Z,41.10
2018-01-13T03:03:41.199Z,40.22
2018-01-13T03:04:44.484Z,43.30
2018-01-13T03:05:48.061Z,38.15
2018-01-13T03:06:50.567Z,38.65
2018-01-13T03:07:53.098Z,40.15
2018-01-13T03:08:55.714Z,39.50
2018-01-13T03:09:58.224Z,39.25
2018-01-13T03:11:00.810Z,37.13
2018-01-13T03:12:03.376Z,36.25
2018-01-13T03:13:05.862Z,36.05
2018-01-13T03:14:08.359Z,38.92
2018-01-13T03:15:11.644Z,38.13
2018-01-13T03:17:30.486Z,35.63
2018-01-13T03:18:32.970Z,35.20
2018-01-13T03:19:36.225Z,35.63
2018-01-13T03:20:38.723Z,36.97
2018-01-13T03:21:41.982Z,32.50
2018-01-13T03:22:44.498Z,34.97
2018-01-13T03:23:47.754Z,36.38
2018-01-13T03:24:50.255Z,37.03
2018-01-13T03:25:53.520Z,39.05
2018-01-13T03:26:56.124Z,35.47
2018-01-13T03:27:58.663Z,35.15
2018-01-13T03:29:01.275Z,36.72
2018-01-13T03:30:03.899Z,36.53
2018-01-13T03:31:06.394Z,36.35
2018-01-13T03:32:09.652Z,35.72
2018-01-13T03:33:12.170Z,35.63
2018-01-13T03:34:14.667Z,34.15
2018-01-13T03:35:17.216Z,36.70
2018-01-13T03:36:19.736Z,34.50
2018-01-13T03:37:22.241Z,33.85
2018-01-13T03:38:25.522Z,34.85
2018-01-13T03:39:28.794Z,33.90
2018-01-13T03:40:31.277Z,34.40
2018-01-13T03:41:33.880Z,33.15
2018-01-13T03:42:36.380Z,34.35
2018-01-13T03:43:38.922Z,34.00
2018-01-13T03:44:41.418Z,35.65
2018-01-13T03:45:43.911Z,34.53
2018-01-13T03:46:46.397Z,33.45
2018-01-13T03:47:48.927Z,32.13
2018-01-13T03:48:51.434Z,31.58
2018-01-13T03:49:53.925Z,31.37
2018-01-13T03:50:57.206Z,30.83
2018-01-13T03:52:00.519Z,30.02
2018-01-13T03:53:03.027Z,30.05
2018-01-13T03:54:05.523Z,30.05
2018-01-13T03:55:08.050Z,32.75
2018-01-13T03:56:10.557Z,30.65
2018-01-13T03:57:13.046Z,29.92
2018-01-13T03:58:16.340Z,29.08
2018-01-13T03:59:19.662Z,30.42
2018-01-13T04:00:22.179Z,31.20
2018-01-13T04:01:24.712Z,29.77
2018-01-13T04:02:27.211Z,29.65
2018-01-13T04:03:29.719Z,28.67
2018-01-13T04:04:32.216Z,31.33
2018-01-13T04:05:34.728Z,30.60
2018-01-13T04:06:37.236Z,29.92
2018-01-13T04:07:39.728Z,29.27
2018-01-13T04:08:42.220Z,29.23
2018-01-13T04:09:44.744Z,29.48
2018-01-13T04:10:47.259Z,30.35
2018-01-13T04:11:49.735Z,30.10
2018-01-13T04:12:52.262Z,30.92
2018-01-13T04:13:54.826Z,29.42
2018-01-13T04:14:57.328Z,29.35
2018-01-13T04:15:59.813Z,28.80
2018-01-13T04:17:02.314Z,29.40
2018-01-13T04:18:05.598Z,30.17
2018-01-13T04:19:08.194Z,29.70
2018-01-13T04:20:10.737Z,32.83
2018-01-13T04:21:13.253Z,31.80
2018-01-13T04:22:15.753Z,29.50
2018-01-13T04:23:18.280Z,31.65
2018-01-13T04:24:20.793Z,29.63
2018-01-13T04:25:23.319Z,29.67
2018-01-13T04:26:25.806Z,30.77
2018-01-13T04:27:28.295Z,31.45
2018-01-13T04:28:30.785Z,29.80
2018-01-13T04:29:33.278Z,29.17
2018-01-13T04:30:36.542Z,29.45
2018-01-13T04:31:39.075Z,29.65
2018-01-13T04:32:41.565Z,30.23
2018-01-13T04:33:44.061Z,28.75
2018-01-13T04:34:46.582Z,29.10
2018-01-13T04:35:49.070Z,29.73
2018-01-13T04:36:51.579Z,28.65
2018-01-13T04:37:54.831Z,30.85
2018-01-13T04:38:57.364Z,30.20
2018-01-13T04:39:59.895Z,28.00
2018-01-13T04:41:02.397Z,28.52
2018-01-13T04:42:04.919Z,29.17
2018-01-13T04:43:07.406Z,28.90
2018-01-13T04:44:09.917Z,27.40
2018-01-13T04:45:12.448Z,27.17
2018-01-13T04:46:14.983Z,26.60
2018-01-13T04:47:17.500Z,28.87
2018-01-13T04:48:20.022Z,30.30
2018-01-13T04:49:22.550Z,27.60
2018-01-13T04:50:25.823Z,28.35
2018-01-13T04:51:28.429Z,27.08
2018-01-13T04:52:30.950Z,28.23
2018-01-13T04:53:33.437Z,29.33
2018-01-13T04:54:35.926Z,28.50
2018-01-13T04:55:39.196Z,26.48
2018-01-13T04:56:42.455Z,24.70
2018-01-13T04:57:44.956Z,26.25
2018-01-13T04:58:47.454Z,27.20
2018-01-13T04:59:49.952Z,27.13
2018-01-13T05:00:52.465Z,28.65
2018-01-13T05:01:54.951Z,27.65
2018-01-13T05:02:58.234Z,26.87
2018-01-13T05:04:01.514Z,27.37
2018-01-13T05:05:04.059Z,27.27
2018-01-13T05:06:06.583Z,27.52
2018-01-13T05:07:09.090Z,27.70
2018-01-13T05:08:11.729Z,28.10
2018-01-13T05:09:14.227Z,26.35
2018-01-13T05:10:16.743Z,26.05
2018-01-13T05:11:20.092Z,27.33
2018-01-13T05:12:22.587Z,27.50
2018-01-13T05:13:25.115Z,29.05
2018-01-13T05:14:27.606Z,27.67
2018-01-13T05:15:30.139Z,26.80
2018-01-13T05:16:32.648Z,27.70
2018-01-13T05:17:35.148Z,26.50
2018-01-13T05:18:37.675Z,25.45
2018-01-13T05:19:40.162Z,26.27
2018-01-13T05:20:42.657Z,27.05
2018-01-13T05:21:45.924Z,25.88
2018-01-13T05:22:48.583Z,26.35
2018-01-13T05:23:51.091Z,29.65
2018-01-13T05:24:53.627Z,26.30
2018-01-13T05:25:56.150Z,26.27
2018-01-13T05:26:59.462Z,26.40
2018-01-13T05:28:01.943Z,28.87
2018-01-13T05:29:04.444Z,27.13
2018-01-13T05:30:06.923Z,23.80
2018-01-13T05:31:09.470Z,25.10
2018-01-13T05:32:11.957Z,26.67
2018-01-13T05:33:14.473Z,27.87
2018-01-13T05:34:16.973Z,25.40
2018-01-13T05:35:19.495Z,26.85
2018-01-13T05:36:22.762Z,25.35
2018-01-13T05:37:25.261Z,26.70
2018-01-13T05:38:28.513Z,28.50
2018-01-13T05:39:31.010Z,26.58
2018-01-13T05:40:34.271Z,26.62
2018-01-13T05:41:36.793Z,28.40
2018-01-13T05:42:39.294Z,25.67
2018-01-13T05:43:41.787Z,25.92
2018-01-13T05:44:44.299Z,26.85
2018-01-13T05:45:46.787Z,25.95
2018-01-13T05:46:49.344Z,27.90
2018-01-13T05:47:52.651Z,24.60
2018-01-13T05:48:55.141Z,29.10
2018-01-13T05:49:57.668Z,26.50
2018-01-13T05:51:00.194Z,26.42
2018-01-13T05:52:02.690Z,28.05
2018-01-13T05:53:05.939Z,27.50
2018-01-13T05:54:08.439Z,25.90
2018-01-13T05:55:10.980Z,26.48
2018-01-13T05:56:13.503Z,27.73
2018-01-13T05:57:16.102Z,29.83
2018-01-13T05:58:18.586Z,26.92
2018-01-13T05:59:21.081Z,27.45
2018-01-13T06:00:23.596Z,29.17
2018-01-13T06:01:26.107Z,28.15
2018-01-13T06:02:28.635Z,26.95
2018-01-13T06:03:31.120Z,29.00
2018-01-13T06:04:33.621Z,27.65
2018-01-13T06:05:36.125Z,29.25
2018-01-13T06:06:39.410Z,27.45
2018-01-13T06:07:42.663Z,28.17
2018-01-13T06:08:45.169Z,29.63
2018-01-13T06:09:48.430Z,29.30
2018-01-13T06:10:50.930Z,27.27
2018-01-13T06:11:54.213Z,27.98
2018-01-13T06:12:57.464Z,30.85
2018-01-13T06:13:59.960Z,27.15
2018-01-13T06:15:02.498Z,27.65
2018-01-13T06:16:05.032Z,28.30
2018-01-13T06:17:07.567Z,28.75
2018-01-13T06:18:10.151Z,28.77
2018-01-13T06:19:13.990Z,28.60
2018-01-13T06:20:16.477Z,27.75
2018-01-13T06:21:18.967Z,27.98
2018-01-13T06:22:21.586Z,28.20
2018-01-13T06:23:24.083Z,29.50
2018-01-13T06:24:26.575Z,27.62
2018-01-13T06:25:29.198Z,29.65
2018-01-13T06:26:31.732Z,29.08
2018-01-13T06:27:34.343Z,29.48
2018-01-13T06:28:36.916Z,31.15
2018-01-13T06:29:39.411Z,29.27
2018-01-13T06:30:41.930Z,29.00
2018-01-13T06:31:44.668Z,30.25
2018-01-13T06:32:47.171Z,29.65
2018-01-13T06:33:49.692Z,30.83
2018-01-13T06:34:52.193Z,27.37
2018-01-13T06:35:54.687Z,29.15
2018-01-13T06:36:57.211Z,27.58
2018-01-13T06:37:59.707Z,27.35
2018-01-13T06:39:02.223Z,29.02
2018-01-13T06:40:04.730Z,27.70
2018-01-13T06:41:07.284Z,29.15
2018-01-13T06:42:09.806Z,30.48
2018-01-13T06:43:12.308Z,28.25
2018-01-13T06:44:14.879Z,27.92
2018-01-13T06:45:17.405Z,30.17
2018-01-13T06:46:19.928Z,29.10
2018-01-13T06:47:23.419Z,29.75
2018-01-13T06:48:25.918Z,27.15
2018-01-13T06:49:28.422Z,28.85
2018-01-13T06:50:31.022Z,29.15
2018-01-13T06:51:33.521Z,31.77
2018-01-13T06:52:36.031Z,29.17
2018-01-13T06:53:38.527Z,31.85
2018-01-13T06:54:41.663Z,30.62
2018-01-13T06:55:44.188Z,28.27
2018-01-13T06:56:46.687Z,29.98
2018-01-13T06:57:49.195Z,31.10
2018-01-13T06:58:51.701Z,28.92
2018-01-13T06:59:54.332Z,30.98
2018-01-13T07:00:56.814Z,29.30
2018-01-13T07:02:01.354Z,30.12
2018-01-13T07:03:03.967Z,29.45
2018-01-13T07:04:07.283Z,32.10
2018-01-13T07:05:09.866Z,31.87
2018-01-13T07:06:12.550Z,28.90
2018-01-13T07:07:15.042Z,33.13
2018-01-13T07:08:17.534Z,30.33
2018-01-13T07:09:20.033Z,30.58
2018-01-13T07:10:22.556Z,32.00
2018-01-13T07:11:25.044Z,29.48
2018-01-13T07:12:27.541Z,29.95
2018-01-13T07:13:30.023Z,29.10
2018-01-13T07:14:32.513Z,29.02
2018-01-13T07:15:35.014Z,28.98
2018-01-13T07:16:37.504Z,29.90
2018-01-13T07:17:40.790Z,28.98
2018-01-13T07:18:43.295Z,31.45
2018-01-13T07:19:45.790Z,31.55
2018-01-13T07:20:48.300Z,32.03
2018-01-13T07:21:50.792Z,30.42
2018-01-13T07:22:53.275Z,31.60
2018-01-13T07:23:55.777Z,30.52
2018-01-13T07:24:58.270Z,29.40
2018-01-13T07:26:00.775Z,30.02
2018-01-13T07:27:03.279Z,31.42
2018-01-13T07:28:05.770Z,28.85
2018-01-13T07:29:08.277Z,30.95
2018-01-13T07:30:10.777Z,31.58
2018-01-13T07:31:13.285Z,29.48
2018-01-13T07:32:16.534Z,30.00
2018-01-13T07:33:19.034Z,30.70
2018-01-13T07:34:21.525Z,30.12
2018-01-13T07:35:24.034Z,30.25
2018-01-13T07:36:26.567Z,28.05
2018-01-13T07:37:29.076Z,30.40
2018-01-13T07:38:31.595Z,31.08
2018-01-13T07:39:34.094Z,31.90
2018-01-13T07:40:37.433Z,30.23
2018-01-13T07:41:39.946Z,29.12
2018-01-13T07:42:43.228Z,30.00
2018-01-13T07:43:45.715Z,30.30
2018-01-13T07:44:49.131Z,31.08
2018-01-13T07:45:51.695Z,28.33
2018-01-13T07:46:54.201Z,30.88
2018-01-13T07:47:56.713Z,28.20
2018-01-13T07:48:59.962Z,31.92
2018-01-13T07:50:02.464Z,28.02
2018-01-13T07:51:04.971Z,30.60
2018-01-13T07:52:07.496Z,27.27
2018-01-13T07:53:10.134Z,29.95
2018-01-13T07:54:12.641Z,28.40
2018-01-13T07:55:15.164Z,29.33
2018-01-13T07:56:17.811Z,27.73
2018-01-13T07:57:21.064Z,29.95
2018-01-13T07:58:25.114Z,26.67
2018-01-13T07:59:27.620Z,30.08
2018-01-13T08:00:30.156Z,27.52
2018-01-13T08:01:32.656Z,29.52
2018-01-13T08:02:35.156Z,28.38
2018-01-13T08:03:37.769Z,26.85
2018-01-13T08:04:40.261Z,28.45
2018-01-13T08:05:42.779Z,28.35
2018-01-13T08:06:45.294Z,26.10
2018-01-13T08:07:47.797Z,28.02
2018-01-13T08:08:50.318Z,25.55
2018-01-13T08:09:53.483Z,25.85
2018-01-13T08:10:56.792Z,24.85
2018-01-13T08:11:59.289Z,26.85
2018-01-13T08:13:01.778Z,24.90
2018-01-13T08:14:04.273Z,24.83
2018-01-13T08:15:06.773Z,23.55
2018-01-13T08:16:09.263Z,23.85
2018-01-13T08:17:11.789Z,24.65
2018-01-13T08:18:14.384Z,25.20
2018-01-13T08:19:16.901Z,25.42
2018-01-13T08:20:19.391Z,23.48
2018-01-13T08:21:21.896Z,24.85
2018-01-13T08:22:24.412Z,22.90
2018-01-13T08:23:26.935Z,22.98
2018-01-13T08:24:29.441Z,26.17
2018-01-13T08:25:31.958Z,24.48
2018-01-13T08:26:35.215Z,25.08
2018-01-13T08:27:37.733Z,22.50
2018-01-13T08:28:40.307Z,23.95
2018-01-13T08:29:42.877Z,22.13
2018-01-13T08:30:46.155Z,24.50
2018-01-13T08:31:48.667Z,24.30
2018-01-13T08:32:51.249Z,24.60
2018-01-13T08:33:54.527Z,22.95
2018-01-13T08:34:57.781Z,22.40
2018-01-13T08:36:00.335Z,24.65
2018-01-13T08:37:03.597Z,25.35
2018-01-13T08:38:06.104Z,22.87
2018-01-13T08:39:08.620Z,23.87
2018-01-13T08:40:11.125Z,22.77
2018-01-13T08:41:13.622Z,23.73
2018-01-13T08:42:16.122Z,22.27
2018-01-13T08:43:18.628Z,23.33
2018-01-13T08:44:21.121Z,24.20
2018-01-13T08:45:23.791Z,23.75
2018-01-13T08:46:26.345Z,23.85
2018-01-13T08:47:28.837Z,23.62
2018-01-13T08:48:31.326Z,22.85
2018-01-13T08:49:33.819Z,24.23
2018-01-13T08:50:36.348Z,22.30
2018-01-13T08:51:38.853Z,21.60
2018-01-13T08:52:41.470Z,22.13
2018-01-13T08:53:43.960Z,24.55
2018-01-13T08:54:46.484Z,21.87
2018-01-13T08:55:48.971Z,22.90
2018-01-13T08:56:52.276Z,20.80
2018-01-13T08:57:54.770Z,23.35
2018-01-13T08:58:57.262Z,19.75
2018-01-13T08:59:59.768Z,21.20
2018-01-13T09:01:03.053Z,22.42
2018-01-13T09:02:06.078Z,23.45
2018-01-13T09:03:08.591Z,19.33
2018-01-13T09:04:11.086Z,19.95
2018-01-13T09:05:14.385Z,21.12
2018-01-13T09:06:16.889Z,21.90
2018-01-13T09:07:19.381Z,21.98
2018-01-13T09:08:21.880Z,21.42
2018-01-13T09:09:25.289Z,21.17
2018-01-13T09:10:27.855Z,21.60
2018-01-13T09:11:30.362Z,21.60
2018-01-13T09:12:32.869Z,21.40
2018-01-13T09:13:36.135Z,21.08
2018-01-13T09:14:38.761Z,20.40
2018-01-13T09:15:41.271Z,22.92
2018-01-13T09:16:43.765Z,20.55
2018-01-13T09:17:46.296Z,18.90
2018-01-13T09:18:48.906Z,22.77
2018-01-13T09:19:51.424Z,21.37
2018-01-13T09:20:53.932Z,21.12
2018-01-13T09:21:56.418Z,21.30
2018-01-13T09:22:58.935Z,21.15
2018-01-13T09:24:01.430Z,19.77
2018-01-13T09:25:03.938Z,19.92
2018-01-13T09:26:07.209Z,21.25
2018-01-13T09:27:09.721Z,18.45
2018-01-13T09:28:12.229Z,20.80
2018-01-13T09:29:14.760Z,20.10
2018-01-13T09:30:17.262Z,19.48
2018-01-13T09:31:19.755Z,18.23
2018-01-13T09:32:22.278Z,16.10
2018-01-13T09:33:24.787Z,18.30
2018-01-13T09:34:27.412Z,20.88
2018-01-13T09:35:29.957Z,18.30
2018-01-13T09:36:33.273Z,18.92
2018-01-13T09:37:35.807Z,18.17
2018-01-13T09:38:38.413Z,17.98
2018-01-13T09:39:40.937Z,18.75
2018-01-13T09:40:43.434Z,16.92
2018-01-13T09:41:46.719Z,16.85
2018-01-13T09:42:49.229Z,17.35
2018-01-13T09:43:51.724Z,19.05
2018-01-13T09:44:54.230Z,19.60
2018-01-13T09:45:57.508Z,17.70
2018-01-13T09:47:00.832Z,16.65
2018-01-13T09:48:03.355Z,17.27
2018-01-13T09:49:05.855Z,17.83
2018-01-13T09:50:09.118Z,17.02
2018-01-13T09:51:13.133Z,19.45
2018-01-13T09:52:16.488Z,18.17
2018-01-13T09:53:19.821Z,16.20
2018-01-13T09:54:22.324Z,18.23
2018-01-13T09:55:24.896Z,18.05
2018-01-13T09:56:27.391Z,17.35
2018-01-13T09:57:29.874Z,17.58
2018-01-13T09:58:32.400Z,18.30
2018-01-13T09:59:34.904Z,17.92
2018-01-13T10:00:37.405Z,17.40
2018-01-13T10:01:40.670Z,16.58
2018-01-13T10:02:43.160Z,16.65
2018-01-13T10:03:45.715Z,18.50
2018-01-13T10:04:48.167Z,18.23
2018-01-13T10:05:50.674Z,19.55
2018-01-13T10:06:53.173Z,17.87
2018-01-13T10:07:55.710Z,17.10
2018-01-13T10:08:58.222Z,17.33
2018-01-13T10:10:00.743Z,16.27
2018-01-13T10:11:03.345Z,16.08
2018-01-13T10:12:06.604Z,18.65
2018-01-13T10:13:09.120Z,18.05
2018-01-13T10:14:11.632Z,16.87
2018-01-13T10:15:14.153Z,18.80
2018-01-13T10:16:17.436Z,18.27
2018-01-13T10:17:20.726Z,17.30
2018-01-13T10:18:23.981Z,19.90
2018-01-13T10:19:26.475Z,19.92
2018-01-13T10:20:29.780Z,17.35
2018-01-13T10:21:32.321Z,18.95
2018-01-13T10:22:34.949Z,17.62
2018-01-13T10:23:37.456Z,17.08
2018-01-13T10:24:39.949Z,16.58
2018-01-13T10:25:43.214Z,18.37
2018-01-13T10:26:45.744Z,18.27
2018-01-13T10:27:48.255Z,17.42
2018-01-13T10:28:50.872Z,17.77
2018-01-13T10:29:53.400Z,17.65
2018-01-13T10:30:57.439Z,17.85
2018-01-13T10:32:00.737Z,16.85
2018-01-13T10:33:03.238Z,16.92
2018-01-13T10:34:05.754Z,16.80
2018-01-13T10:35:09.044Z,17.67
2018-01-13T10:36:12.326Z,17.55
2018-01-13T10:37:14.874Z,18.20
2018-01-13T10:38:17.369Z,18.55
2018-01-13T10:39:19.969Z,17.48
2018-01-13T10:40:22.457Z,18.70
2018-01-13T10:41:25.011Z,16.80
2018-01-13T10:42:27.520Z,17.17
2018-01-13T10:43:30.031Z,19.00
2018-01-13T10:44:33.290Z,16.35
2018-01-13T10:45:35.810Z,15.90
2018-01-13T10:46:38.323Z,16.17
2018-01-13T10:47:40.841Z,17.60
2018-01-13T10:48:44.124Z,16.37
2018-01-13T10:49:47.405Z,17.40
2018-01-13T10:50:50.668Z,18.83
2018-01-13T10:51:53.154Z,17.77
2018-01-13T10:52:55.694Z,16.65
2018-01-13T10:53:58.201Z,17.15
2018-01-13T10:55:01.456Z,16.30
2018-01-13T10:56:03.952Z,15.95
2018-01-13T10:57:06.451Z,15.65
2018-01-13T10:58:08.979Z,16.70
2018-01-13T10:59:11.549Z,17.85
2018-01-13T11:00:14.025Z,16.20
2018-01-13T11:01:16.540Z,16.60
2018-01-13T11:02:19.036Z,16.83
2018-01-13T11:03:21.568Z,16.05
2018-01-13T11:04:24.847Z,16.75
2018-01-13T11:05:28.163Z,16.45
2018-01-13T11:06:30.657Z,16.35
2018-01-13T11:07:33.163Z,17.15
2018-01-13T11:08:35.681Z,16.83
2018-01-13T11:09:38.196Z,17.33
2018-01-13T11:10:41.476Z,16.17
2018-01-13T11:11:43.963Z,16.50
2018-01-13T11:12:46.565Z,16.83
2018-01-13T11:13:49.083Z,17.30
2018-01-13T11:14:51.586Z,17.12
2018-01-13T11:15:54.851Z,17.95
2018-01-13T11:16:57.465Z,16.55
2018-01-13T11:17:59.960Z,16.92
2018-01-13T11:19:02.472Z,16.92
2018-01-13T11:20:05.074Z,17.25
2018-01-13T11:21:07.581Z,16.80
2018-01-13T11:22:10.111Z,16.80
2018-01-13T11:23:13.416Z,16.48
2018-01-13T11:24:15.945Z,19.23
2018-01-13T11:25:18.550Z,17.00
2018-01-13T11:26:21.072Z,16.30
2018-01-13T11:27:23.570Z,18.35
2018-01-13T11:28:26.821Z,17.50
2018-01-13T11:29:29.316Z,16.05
2018-01-13T11:30:31.842Z,16.25
2018-01-13T11:31:34.373Z,17.77
2018-01-13T11:32:37.686Z,16.20
2018-01-13T11:33:40.483Z,16.67
2018-01-13T11:34:43.127Z,17.15
2018-01-13T11:35:45.636Z,17.50
2018-01-13T11:36:48.145Z,15.65
2018-01-13T11:37:51.402Z,17.85
2018-01-13T11:38:53.907Z,17.80
2018-01-13T11:39:57.153Z,16.17
2018-01-13T11:40:59.683Z,16.12
2018-01-13T11:42:02.199Z,16.58
2018-01-13T11:43:04.695Z,16.55
2018-01-13T11:44:07.971Z,16.98
2018-01-13T11:45:11.986Z,17.80
2018-01-13T11:46:14.507Z,17.15
2018-01-13T11:47:17.046Z,19.15
2018-01-13T11:48:20.310Z,17.35
2018-01-13T11:49:22.810Z,18.85
2018-01-13T11:50:26.083Z,18.60
2018-01-13T11:51:29.328Z,17.33
2018-01-13T11:52:31.857Z,17.00
2018-01-13T11:53:34.357Z,16.95
2018-01-13T11:54:36.896Z,18.02
2018-01-13T11:55:40.173Z,17.60
2018-01-13T11:56:42.672Z,17.87
2018-01-13T11:57:45.196Z,16.27
2018-01-13T11:58:48.481Z,16.87
2018-01-13T11:59:50.994Z,17.62
2018-01-13T12:00:53.495Z,17.70
2018-01-13T12:01:56.007Z,18.08
2018-01-13T12:02:59.276Z,16.60
2018-01-13T12:04:01.778Z,16.35
2018-01-13T12:05:05.085Z,17.15
2018-01-13T12:06:07.582Z,17.87
2018-01-13T12:07:10.133Z,17.27
2018-01-13T12:08:12.676Z,19.15
2018-01-13T12:09:15.189Z,16.15
2018-01-13T12:10:17.700Z,17.45
2018-01-13T12:11:20.223Z,16.25
2018-01-13T12:12:22.738Z,16.15
2018-01-13T12:13:25.283Z,17.48
2018-01-13T12:14:27.791Z,16.58
2018-01-13T12:15:31.044Z,16.33
2018-01-13T12:16:33.543Z,17.02
2018-01-13T12:17:36.042Z,16.58
2018-01-13T12:18:38.824Z,15.25
2018-01-13T12:19:41.326Z,15.50
2018-01-13T12:20:43.827Z,15.75
2018-01-13T12:21:46.322Z,17.45
2018-01-13T12:22:49.431Z,15.68
2018-01-13T12:23:51.941Z,15.18
2018-01-13T12:24:55.209Z,14.57
2018-01-13T12:25:57.706Z,16.30
2018-01-13T12:27:00.318Z,15.65
2018-01-13T12:28:02.811Z,16.30
2018-01-13T12:29:05.327Z,14.70
2018-01-13T12:30:08.604Z,14.87
2018-01-13T12:31:11.112Z,15.95
2018-01-13T12:32:13.637Z,16.85
2018-01-13T12:33:16.156Z,15.80
2018-01-13T12:34:18.672Z,14.55
2018-01-13T12:35:21.194Z,17.73
2018-01-13T12:36:23.706Z,16.90
2018-01-13T12:37:26.212Z,18.08
2018-01-13T12:38:29.491Z,17.73
2018-01-13T12:39:31.991Z,16.25
2018-01-13T12:40:34.509Z,18.80
2018-01-13T12:41:37.012Z,17.85
2018-01-13T12:42:40.259Z,15.75
2018-01-13T12:43:42.797Z,16.00
2018-01-13T12:44:45.291Z,19.45
2018-01-13T12:45:47.783Z,16.60
2018-01-13T12:46:50.300Z,16.90
2018-01-13T12:47:52.786Z,13.93
2018-01-13T12:48:55.304Z,14.75
2018-01-13T12:49:57.809Z,14.20
2018-01-13T12:51:00.307Z,14.07
2018-01-13T12:52:02.826Z,14.23
2018-01-13T12:53:06.100Z,15.57
2018-01-13T12:54:08.616Z,15.88
2018-01-13T12:55:11.122Z,15.77
2018-01-13T12:56:13.619Z,14.90
2018-01-13T12:57:16.153Z,15.50
2018-01-13T12:58:18.643Z,14.95
2018-01-13T12:59:21.260Z,15.75
2018-01-13T13:00:23.758Z,15.43
2018-01-13T13:01:26.252Z,15.25
2018-01-13T13:02:28.870Z,14.07
2018-01-13T13:03:31.420Z,16.00
2018-01-13T13:04:34.678Z,15.35
2018-01-13T13:05:37.190Z,16.20
2018-01-13T13:06:40.451Z,15.48
2018-01-13T13:07:44.464Z,15.45
2018-01-13T13:08:46.997Z,16.23
2018-01-13T13:09:50.265Z,15.00
2018-01-13T13:10:52.761Z,16.85
2018-01-13T13:11:55.291Z,16.42
2018-01-13T13:12:57.806Z,16.85
2018-01-13T13:14:00.315Z,17.33
2018-01-13T13:15:03.595Z,16.48
2018-01-13T13:16:06.104Z,16.73
2018-01-13T13:17:08.597Z,15.65
2018-01-13T13:18:11.086Z,16.65
2018-01-13T13:19:13.648Z,15.75
2018-01-13T13:20:16.150Z,16.08
2018-01-13T13:21:19.404Z,16.48
2018-01-13T13:22:21.913Z,15.90
2018-01-13T13:23:25.236Z,16.27
2018-01-13T13:24:27.715Z,15.07
2018-01-13T13:25:30.273Z,16.83
2018-01-13T13:26:32.789Z,17.45
2018-01-13T13:27:35.293Z,15.48
2018-01-13T13:28:38.700Z,15.15